Almozara, Spain
Current Conditions -  °F | °C
As of 8:00 AM on Monday 24 Nov 2014 (Local Time) from LEZG Reporting Station
Few Clouds Few Clouds  
Wind Chill: 12°   Ceiling: Unl
Heat Index: 12°   Visibility: 5mi
Dew Point: 11°   Wind: 1mph
Humidity: 94%   Direction: 180°S
Pressure: 30.03"   Gusts: NA
Location:  41.66°N, 0.9°W
Report Text: LEZG 240700Z 18001KT 8000 FEW070 12/11 Q1017
Loading
Personal Weather Stations






























Interactive Weather Map New forecast layout! Learn more

10-Day Weather Forecast

Advertisements
Track Severe Weather on mobile